sensor_id;sensor_type;location;lat;lon;timestamp;P1;durP1;ratioP1;P2;durP2;ratioP2
23390;SDS011;11868;45.606;5.302;2023-03-14T00:00:55;3.20;;;0.93;;
23390;SDS011;11868;45.606;5.302;2023-03-14T00:03:20;1.33;;;0.70;;
23390;SDS011;11868;45.606;5.302;2023-03-14T00:05:46;2.47;;;1.23;;
23390;SDS011;11868;45.606;5.302;2023-03-14T00:08:11;3.35;;;1.40;;
23390;SDS011;11868;45.606;5.302;2023-03-14T00:10:37;1.42;;;1.20;;
23390;SDS011;11868;45.606;5.302;2023-03-14T00:13:03;2.25;;;1.02;;
23390;SDS011;11868;45.606;5.302;2023-03-14T00:15:28;2.42;;;1.10;;
23390;SDS011;11868;45.606;5.302;2023-03-14T00:17:54;1.55;;;0.82;;
23390;SDS011;11868;45.606;5.302;2023-03-14T00:20:19;1.98;;;1.05;;
23390;SDS011;11868;45.606;5.302;2023-03-14T00:22:44;2.25;;;0.98;;
23390;SDS011;11868;45.606;5.302;2023-03-14T00:25:10;2.65;;;0.82;;
23390;SDS011;11868;45.606;5.302;2023-03-14T00:27:36;1.23;;;0.85;;
23390;SDS011;11868;45.606;5.302;2023-03-14T00:30:02;0.80;;;0.63;;
23390;SDS011;11868;45.606;5.302;2023-03-14T00:32:28;1.63;;;0.80;;
23390;SDS011;11868;45.606;5.302;2023-03-14T00:34:53;5.00;;;0.70;;
23390;SDS011;11868;45.606;5.302;2023-03-14T00:37:18;1.23;;;0.45;;
23390;SDS011;11868;45.606;5.302;2023-03-14T00:39:44;0.55;;;0.52;;
23390;SDS011;11868;45.606;5.302;2023-03-14T00:42:09;0.77;;;0.63;;
23390;SDS011;11868;45.606;5.302;2023-03-14T00:44:35;1.50;;;0.75;;
23390;SDS011;11868;45.606;5.302;2023-03-14T00:47:00;1.27;;;0.82;;
23390;SDS011;11868;45.606;5.302;2023-03-14T00:49:25;0.68;;;0.60;;
23390;SDS011;11868;45.606;5.302;2023-03-14T00:51:51;1.23;;;0.60;;
23390;SDS011;11868;45.606;5.302;2023-03-14T00:54:17;1.23;;;0.68;;
23390;SDS011;11868;45.606;5.302;2023-03-14T00:56:43;1.65;;;0.73;;
23390;SDS011;11868;45.606;5.302;2023-03-14T00:59:09;0.82;;;0.60;;
23390;SDS011;11868;45.606;5.302;2023-03-14T01:01:34;1.52;;;0.57;;
23390;SDS011;11868;45.606;5.302;2023-03-14T01:03:59;1.17;;;0.68;;
23390;SDS011;11868;45.606;5.302;2023-03-14T01:06:26;0.70;;;0.70;;
23390;SDS011;11868;45.606;5.302;2023-03-14T01:08:52;2.78;;;0.60;;
23390;SDS011;11868;45.606;5.302;2023-03-14T01:11:20;1.15;;;0.75;;
23390;SDS011;11868;45.606;5.302;2023-03-14T01:13:46;3.25;;;0.70;;
23390;SDS011;11868;45.606;5.302;2023-03-14T01:16:12;2.90;;;0.82;;
23390;SDS011;11868;45.606;5.302;2023-03-14T01:18:39;2.42;;;0.70;;
23390;SDS011;11868;45.606;5.302;2023-03-14T01:21:47;0.60;;;0.60;;
23390;SDS011;11868;45.606;5.302;2023-03-14T01:23:56;1.45;;;0.55;;
23390;SDS011;11868;45.606;5.302;2023-03-14T01:26:23;1.10;;;0.70;;
23390;SDS011;11868;45.606;5.302;2023-03-14T01:28:50;0.82;;;0.60;;
23390;SDS011;11868;45.606;5.302;2023-03-14T01:31:16;1.33;;;0.60;;
23390;SDS011;11868;45.606;5.302;2023-03-14T01:33:42;1.85;;;0.65;;
23390;SDS011;11868;45.606;5.302;2023-03-14T01:36:08;1.00;;;0.57;;
23390;SDS011;11868;45.606;5.302;2023-03-14T01:38:34;2.63;;;1.13;;
23390;SDS011;11868;45.606;5.302;2023-03-14T01:41:01;0.93;;;0.57;;
23390;SDS011;11868;45.606;5.302;2023-03-14T01:43:28;1.20;;;0.70;;
23390;SDS011;11868;45.606;5.302;2023-03-14T01:48:32;0.80;;;0.70;;
23390;SDS011;11868;45.606;5.302;2023-03-14T01:51:00;1.55;;;0.73;;
23390;SDS011;11868;45.606;5.302;2023-03-14T01:53:27;1.15;;;0.60;;
23390;SDS011;11868;45.606;5.302;2023-03-14T01:55:52;1.55;;;0.65;;
23390;SDS011;11868;45.606;5.302;2023-03-14T01:58:21;0.57;;;0.57;;
23390;SDS011;11868;45.606;5.302;2023-03-14T02:00:47;1.05;;;0.60;;
23390;SDS011;11868;45.606;5.302;2023-03-14T02:03:14;2.58;;;0.60;;
23390;SDS011;11868;45.606;5.302;2023-03-14T02:05:41;2.72;;;0.70;;
23390;SDS011;11868;45.606;5.302;2023-03-14T02:08:09;1.95;;;0.70;;
23390;SDS011;11868;45.606;5.302;2023-03-14T02:10:43;0.75;;;0.60;;
23390;SDS011;11868;45.606;5.302;2023-03-14T02:13:10;0.55;;;0.50;;
23390;SDS011;11868;45.606;5.302;2023-03-14T02:15:36;0.82;;;0.60;;
23390;SDS011;11868;45.606;5.302;2023-03-14T02:18:02;1.15;;;0.50;;
23390;SDS011;11868;45.606;5.302;2023-03-14T02:20:36;0.40;;;0.40;;
23390;SDS011;11868;45.606;5.302;2023-03-14T02:23:39;0.82;;;0.50;;
23390;SDS011;11868;45.606;5.302;2023-03-14T02:26:21;0.60;;;0.50;;
23390;SDS011;11868;45.606;5.302;2023-03-14T02:28:47;0.55;;;0.47;;
23390;SDS011;11868;45.606;5.302;2023-03-14T02:31:13;2.42;;;0.60;;
23390;SDS011;11868;45.606;5.302;2023-03-14T02:33:39;0.50;;;0.50;;
23390;SDS011;11868;45.606;5.302;2023-03-14T02:36:05;0.50;;;0.50;;
23390;SDS011;11868;45.606;5.302;2023-03-14T02:41:06;0.60;;;0.50;;
23390;SDS011;11868;45.606;5.302;2023-03-14T02:43:32;0.70;;;0.70;;
23390;SDS011;11868;45.606;5.302;2023-03-14T02:45:57;1.25;;;0.55;;
23390;SDS011;11868;45.606;5.302;2023-03-14T02:51:19;1.95;;;0.85;;
23390;SDS011;11868;45.606;5.302;2023-03-14T02:53:45;2.25;;;0.60;;
23390;SDS011;11868;45.606;5.302;2023-03-14T02:56:11;1.10;;;0.40;;
23390;SDS011;11868;45.606;5.302;2023-03-14T02:58:36;1.77;;;0.70;;
23390;SDS011;11868;45.606;5.302;2023-03-14T03:01:02;2.47;;;0.70;;
23390;SDS011;11868;45.606;5.302;2023-03-14T03:03:27;1.25;;;0.60;;
23390;SDS011;11868;45.606;5.302;2023-03-14T03:05:54;1.38;;;0.68;;
23390;SDS011;11868;45.606;5.302;2023-03-14T03:08:20;3.17;;;0.50;;
23390;SDS011;11868;45.606;5.302;2023-03-14T03:10:47;2.30;;;0.80;;
23390;SDS011;11868;45.606;5.302;2023-03-14T03:13:13;1.55;;;0.60;;
23390;SDS011;11868;45.606;5.302;2023-03-14T03:15:38;1.00;;;0.60;;
23390;SDS011;11868;45.606;5.302;2023-03-14T03:18:04;2.42;;;0.80;;
23390;SDS011;11868;45.606;5.302;2023-03-14T03:20:30;1.38;;;0.68;;
23390;SDS011;11868;45.606;5.302;2023-03-14T03:22:55;3.13;;;0.63;;
23390;SDS011;11868;45.606;5.302;2023-03-14T03:25:20;1.20;;;0.63;;
23390;SDS011;11868;45.606;5.302;2023-03-14T03:27:46;1.63;;;0.65;;
23390;SDS011;11868;45.606;5.302;2023-03-14T03:30:11;0.93;;;0.65;;
23390;SDS011;11868;45.606;5.302;2023-03-14T03:32:37;2.63;;;0.80;;
23390;SDS011;11868;45.606;5.302;2023-03-14T03:35:03;1.67;;;0.70;;
23390;SDS011;11868;45.606;5.302;2023-03-14T03:37:32;1.60;;;0.70;;
23390;SDS011;11868;45.606;5.302;2023-03-14T03:39:57;5.00;;;0.80;;
23390;SDS011;11868;45.606;5.302;2023-03-14T03:42:23;3.25;;;0.70;;
23390;SDS011;11868;45.606;5.302;2023-03-14T03:44:48;3.28;;;0.70;;
23390;SDS011;11868;45.606;5.302;2023-03-14T03:47:14;3.60;;;0.82;;
23390;SDS011;11868;45.606;5.302;2023-03-14T03:49:40;4.43;;;0.60;;
23390;SDS011;11868;45.606;5.302;2023-03-14T03:52:05;0.93;;;0.50;;
23390;SDS011;11868;45.606;5.302;2023-03-14T03:54:31;1.73;;;0.70;;
23390;SDS011;11868;45.606;5.302;2023-03-14T03:56:56;2.00;;;0.70;;
23390;SDS011;11868;45.606;5.302;2023-03-14T03:59:21;3.28;;;0.80;;
23390;SDS011;11868;45.606;5.302;2023-03-14T04:01:47;2.20;;;0.60;;
23390;SDS011;11868;45.606;5.302;2023-03-14T04:04:12;2.75;;;0.70;;
23390;SDS011;11868;45.606;5.302;2023-03-14T04:06:38;2.90;;;0.90;;
23390;SDS011;11868;45.606;5.302;2023-03-14T04:09:04;3.00;;;0.70;;
23390;SDS011;11868;45.606;5.302;2023-03-14T04:11:29;0.60;;;0.60;;
23390;SDS011;11868;45.606;5.302;2023-03-14T04:13:54;2.53;;;0.70;;
23390;SDS011;11868;45.606;5.302;2023-03-14T04:16:21;0.73;;;0.50;;
23390;SDS011;11868;45.606;5.302;2023-03-14T04:18:47;0.55;;;0.40;;
23390;SDS011;11868;45.606;5.302;2023-03-14T04:21:13;5.45;;;1.05;;
23390;SDS011;11868;45.606;5.302;2023-03-14T04:23:38;3.42;;;0.60;;
23390;SDS011;11868;45.606;5.302;2023-03-14T04:26:04;1.63;;;0.60;;
23390;SDS011;11868;45.606;5.302;2023-03-14T04:28:29;1.85;;;0.60;;
23390;SDS011;11868;45.606;5.302;2023-03-14T04:30:55;2.88;;;0.60;;
23390;SDS011;11868;45.606;5.302;2023-03-14T04:33:20;2.47;;;0.60;;
23390;SDS011;11868;45.606;5.302;2023-03-14T04:35:46;0.50;;;0.50;;
23390;SDS011;11868;45.606;5.302;2023-03-14T04:38:11;2.25;;;0.60;;
23390;SDS011;11868;45.606;5.302;2023-03-14T04:40:38;1.27;;;0.50;;
23390;SDS011;11868;45.606;5.302;2023-03-14T04:43:04;1.35;;;0.80;;
23390;SDS011;11868;45.606;5.302;2023-03-14T04:45:30;1.75;;;0.88;;
23390;SDS011;11868;45.606;5.302;2023-03-14T04:47:55;1.23;;;0.55;;
23390;SDS011;11868;45.606;5.302;2023-03-14T04:50:20;0.98;;;0.50;;
23390;SDS011;11868;45.606;5.302;2023-03-14T04:52:46;3.40;;;0.70;;
23390;SDS011;11868;45.606;5.302;2023-03-14T04:55:11;2.08;;;0.63;;
23390;SDS011;11868;45.606;5.302;2023-03-14T04:57:36;3.42;;;0.50;;
23390;SDS011;11868;45.606;5.302;2023-03-14T05:00:02;0.93;;;0.50;;
23390;SDS011;11868;45.606;5.302;2023-03-14T05:02:32;1.05;;;0.60;;
23390;SDS011;11868;45.606;5.302;2023-03-14T05:04:58;0.70;;;0.60;;
23390;SDS011;11868;45.606;5.302;2023-03-14T05:07:23;0.82;;;0.38;;
23390;SDS011;11868;45.606;5.302;2023-03-14T05:09:48;1.23;;;0.50;;
23390;SDS011;11868;45.606;5.302;2023-03-14T05:12:14;2.97;;;0.70;;
23390;SDS011;11868;45.606;5.302;2023-03-14T05:14:39;1.42;;;0.60;;
23390;SDS011;11868;45.606;5.302;2023-03-14T05:17:05;4.57;;;0.88;;
23390;SDS011;11868;45.606;5.302;2023-03-14T05:19:30;4.88;;;0.52;;
23390;SDS011;11868;45.606;5.302;2023-03-14T05:21:56;2.03;;;0.60;;
23390;SDS011;11868;45.606;5.302;2023-03-14T05:24:21;2.00;;;0.60;;
23390;SDS011;11868;45.606;5.302;2023-03-14T05:26:47;3.88;;;0.70;;
23390;SDS011;11868;45.606;5.302;2023-03-14T05:29:12;4.70;;;0.63;;
23390;SDS011;11868;45.606;5.302;2023-03-14T05:31:37;2.30;;;0.80;;
23390;SDS011;11868;45.606;5.302;2023-03-14T05:34:03;1.42;;;0.80;;
23390;SDS011;11868;45.606;5.302;2023-03-14T05:36:28;2.67;;;0.88;;
23390;SDS011;11868;45.606;5.302;2023-03-14T05:38:53;2.13;;;0.80;;
23390;SDS011;11868;45.606;5.302;2023-03-14T05:41:19;2.45;;;0.82;;
23390;SDS011;11868;45.606;5.302;2023-03-14T05:43:44;1.73;;;0.70;;
23390;SDS011;11868;45.606;5.302;2023-03-14T05:46:09;2.72;;;0.90;;
23390;SDS011;11868;45.606;5.302;2023-03-14T05:48:35;2.78;;;0.80;;
23390;SDS011;11868;45.606;5.302;2023-03-14T05:51:00;0.98;;;0.45;;
23390;SDS011;11868;45.606;5.302;2023-03-14T05:53:25;3.15;;;1.05;;
23390;SDS011;11868;45.606;5.302;2023-03-14T05:55:52;2.63;;;0.75;;
23390;SDS011;11868;45.606;5.302;2023-03-14T05:58:18;2.58;;;0.70;;
23390;SDS011;11868;45.606;5.302;2023-03-14T06:00:43;3.08;;;0.70;;
23390;SDS011;11868;45.606;5.302;2023-03-14T06:03:08;3.28;;;0.90;;
23390;SDS011;11868;45.606;5.302;2023-03-14T06:05:34;2.85;;;0.93;;
23390;SDS011;11868;45.606;5.302;2023-03-14T06:07:59;0.90;;;0.50;;
23390;SDS011;11868;45.606;5.302;2023-03-14T06:10:24;5.28;;;0.82;;
23390;SDS011;11868;45.606;5.302;2023-03-14T06:12:50;1.67;;;1.35;;
23390;SDS011;11868;45.606;5.302;2023-03-14T06:15:15;3.22;;;1.40;;
23390;SDS011;11868;45.606;5.302;2023-03-14T06:17:40;2.00;;;1.05;;
23390;SDS011;11868;45.606;5.302;2023-03-14T06:20:06;1.35;;;0.80;;
23390;SDS011;11868;45.606;5.302;2023-03-14T06:22:32;2.67;;;0.70;;
23390;SDS011;11868;45.606;5.302;2023-03-14T06:24:57;2.08;;;0.82;;
23390;SDS011;11868;45.606;5.302;2023-03-14T06:27:23;4.13;;;0.75;;
23390;SDS011;11868;45.606;5.302;2023-03-14T06:29:48;1.13;;;0.60;;
23390;SDS011;11868;45.606;5.302;2023-03-14T06:32:13;4.40;;;0.90;;
23390;SDS011;11868;45.606;5.302;2023-03-14T06:34:39;1.55;;;0.70;;
23390;SDS011;11868;45.606;5.302;2023-03-14T06:37:04;1.55;;;0.60;;
23390;SDS011;11868;45.606;5.302;2023-03-14T06:39:30;0.80;;;0.52;;
23390;SDS011;11868;45.606;5.302;2023-03-14T06:41:56;2.25;;;0.50;;
23390;SDS011;11868;45.606;5.302;2023-03-14T06:44:21;1.52;;;0.60;;
23390;SDS011;11868;45.606;5.302;2023-03-14T06:46:47;2.13;;;0.70;;
23390;SDS011;11868;45.606;5.302;2023-03-14T06:49:12;1.30;;;0.70;;
23390;SDS011;11868;45.606;5.302;2023-03-14T06:51:37;3.92;;;0.98;;
23390;SDS011;11868;45.606;5.302;2023-03-14T06:54:03;4.50;;;1.00;;
23390;SDS011;11868;45.606;5.302;2023-03-14T06:56:28;2.10;;;1.00;;
23390;SDS011;11868;45.606;5.302;2023-03-14T06:58:53;5.22;;;1.17;;
23390;SDS011;11868;45.606;5.302;2023-03-14T07:01:26;1.10;;;0.85;;
23390;SDS011;11868;45.606;5.302;2023-03-14T07:03:53;3.70;;;1.52;;
23390;SDS011;11868;45.606;5.302;2023-03-14T07:06:18;2.53;;;1.27;;
23390;SDS011;11868;45.606;5.302;2023-03-14T07:08:44;2.10;;;1.20;;
23390;SDS011;11868;45.606;5.302;2023-03-14T07:11:10;1.92;;;1.00;;
23390;SDS011;11868;45.606;5.302;2023-03-14T07:13:36;3.25;;;0.95;;
23390;SDS011;11868;45.606;5.302;2023-03-14T07:16:03;2.00;;;0.98;;
23390;SDS011;11868;45.606;5.302;2023-03-14T07:18:29;2.58;;;1.05;;
23390;SDS011;11868;45.606;5.302;2023-03-14T07:20:54;3.90;;;0.95;;
23390;SDS011;11868;45.606;5.302;2023-03-14T07:23:19;5.70;;;1.20;;
23390;SDS011;11868;45.606;5.302;2023-03-14T07:25:45;3.00;;;0.90;;
23390;SDS011;11868;45.606;5.302;2023-03-14T07:28:10;3.90;;;1.10;;
23390;SDS011;11868;45.606;5.302;2023-03-14T07:30:36;3.58;;;1.00;;
23390;SDS011;11868;45.606;5.302;2023-03-14T07:33:01;3.55;;;1.13;;
23390;SDS011;11868;45.606;5.302;2023-03-14T07:35:27;2.13;;;1.02;;
23390;SDS011;11868;45.606;5.302;2023-03-14T07:37:52;5.32;;;1.20;;
23390;SDS011;11868;45.606;5.302;2023-03-14T07:40:17;4.13;;;2.05;;
23390;SDS011;11868;45.606;5.302;2023-03-14T07:42:43;2.67;;;0.95;;
23390;SDS011;11868;45.606;5.302;2023-03-14T07:45:09;5.10;;;1.20;;
23390;SDS011;11868;45.606;5.302;2023-03-14T07:47:35;4.60;;;1.10;;
23390;SDS011;11868;45.606;5.302;2023-03-14T07:50:00;1.40;;;0.77;;
23390;SDS011;11868;45.606;5.302;2023-03-14T07:52:26;4.20;;;1.35;;
23390;SDS011;11868;45.606;5.302;2023-03-14T07:54:51;4.18;;;1.10;;
23390;SDS011;11868;45.606;5.302;2023-03-14T07:57:17;3.42;;;0.90;;
23390;SDS011;11868;45.606;5.302;2023-03-14T07:59:42;3.78;;;1.17;;
23390;SDS011;11868;45.606;5.302;2023-03-14T08:02:11;6.45;;;1.20;;
23390;SDS011;11868;45.606;5.302;2023-03-14T08:04:37;5.30;;;1.30;;
23390;SDS011;11868;45.606;5.302;2023-03-14T08:07:03;7.18;;;2.03;;
23390;SDS011;11868;45.606;5.302;2023-03-14T08:09:28;6.10;;;1.23;;
23390;SDS011;11868;45.606;5.302;2023-03-14T08:11:53;4.00;;;1.50;;
23390;SDS011;11868;45.606;5.302;2023-03-14T08:14:19;2.70;;;1.20;;
23390;SDS011;11868;45.606;5.302;2023-03-14T08:16:45;3.33;;;1.25;;
23390;SDS011;11868;45.606;5.302;2023-03-14T08:19:10;7.28;;;1.45;;
23390;SDS011;11868;45.606;5.302;2023-03-14T08:21:35;4.45;;;1.38;;
23390;SDS011;11868;45.606;5.302;2023-03-14T08:24:01;2.45;;;1.23;;
23390;SDS011;11868;45.606;5.302;2023-03-14T08:26:26;3.47;;;1.13;;
23390;SDS011;11868;45.606;5.302;2023-03-14T08:28:52;3.25;;;1.30;;
23390;SDS011;11868;45.606;5.302;2023-03-14T08:31:17;3.78;;;1.30;;
23390;SDS011;11868;45.606;5.302;2023-03-14T08:33:42;2.03;;;1.15;;
23390;SDS011;11868;45.606;5.302;2023-03-14T08:36:08;3.72;;;1.10;;
23390;SDS011;11868;45.606;5.302;2023-03-14T08:38:33;3.85;;;1.20;;
23390;SDS011;11868;45.606;5.302;2023-03-14T08:40:59;4.68;;;1.30;;
23390;SDS011;11868;45.606;5.302;2023-03-14T08:43:26;2.72;;;1.00;;
23390;SDS011;11868;45.606;5.302;2023-03-14T08:45:52;4.20;;;1.20;;
23390;SDS011;11868;45.606;5.302;2023-03-14T08:48:17;6.53;;;1.30;;
23390;SDS011;11868;45.606;5.302;2023-03-14T08:50:44;2.75;;;1.10;;
23390;SDS011;11868;45.606;5.302;2023-03-14T08:53:09;3.10;;;1.50;;
23390;SDS011;11868;45.606;5.302;2023-03-14T08:55:35;3.45;;;1.02;;
23390;SDS011;11868;45.606;5.302;2023-03-14T08:58:00;2.60;;;0.77;;
23390;SDS011;11868;45.606;5.302;2023-03-14T09:00:26;6.90;;;1.30;;
23390;SDS011;11868;45.606;5.302;2023-03-14T09:02:51;2.50;;;1.20;;
23390;SDS011;11868;45.606;5.302;2023-03-14T09:05:17;1.77;;;1.10;;
23390;SDS011;11868;45.606;5.302;2023-03-14T09:07:42;2.72;;;1.33;;
23390;SDS011;11868;45.606;5.302;2023-03-14T09:10:08;3.72;;;1.60;;
23390;SDS011;11868;45.606;5.302;2023-03-14T09:12:34;3.47;;;1.80;;
23390;SDS011;11868;45.606;5.302;2023-03-14T09:15:00;4.07;;;1.80;;
23390;SDS011;11868;45.606;5.302;2023-03-14T09:17:25;4.93;;;1.98;;
23390;SDS011;11868;45.606;5.302;2023-03-14T09:19:51;5.82;;;1.58;;
23390;SDS011;11868;45.606;5.302;2023-03-14T09:22:16;5.68;;;1.70;;
23390;SDS011;11868;45.606;5.302;2023-03-14T09:24:41;4.30;;;1.20;;
23390;SDS011;11868;45.606;5.302;2023-03-14T09:27:07;3.90;;;1.00;;
23390;SDS011;11868;45.606;5.302;2023-03-14T09:29:33;3.80;;;0.77;;
23390;SDS011;11868;45.606;5.302;2023-03-14T09:31:59;4.20;;;0.90;;
23390;SDS011;11868;45.606;5.302;2023-03-14T09:34:24;6.47;;;0.90;;
23390;SDS011;11868;45.606;5.302;2023-03-14T09:36:50;3.47;;;1.00;;
23390;SDS011;11868;45.606;5.302;2023-03-14T09:39:15;5.55;;;0.90;;
23390;SDS011;11868;45.606;5.302;2023-03-14T09:41:46;2.78;;;0.82;;
23390;SDS011;11868;45.606;5.302;2023-03-14T09:44:29;4.80;;;0.90;;
23390;SDS011;11868;45.606;5.302;2023-03-14T09:46:57;4.13;;;1.08;;
23390;SDS011;11868;45.606;5.302;2023-03-14T09:49:31;5.95;;;1.25;;
23390;SDS011;11868;45.606;5.302;2023-03-14T09:51:58;5.50;;;1.50;;
23390;SDS011;11868;45.606;5.302;2023-03-14T09:54:30;4.70;;;1.23;;
23390;SDS011;11868;45.606;5.302;2023-03-14T09:56:57;5.40;;;1.40;;
23390;SDS011;11868;45.606;5.302;2023-03-14T09:59:23;8.02;;;1.25;;
23390;SDS011;11868;45.606;5.302;2023-03-14T10:01:48;6.30;;;1.55;;
23390;SDS011;11868;45.606;5.302;2023-03-14T10:04:15;11.05;;;1.80;;
23390;SDS011;11868;45.606;5.302;2023-03-14T10:06:42;5.40;;;1.30;;
23390;SDS011;11868;45.606;5.302;2023-03-14T10:09:13;3.65;;;1.35;;
23390;SDS011;11868;45.606;5.302;2023-03-14T10:11:42;7.82;;;1.67;;
23390;SDS011;11868;45.606;5.302;2023-03-14T10:14:08;4.07;;;1.02;;
23390;SDS011;11868;45.606;5.302;2023-03-14T10:16:36;3.72;;;1.02;;
23390;SDS011;11868;45.606;5.302;2023-03-14T10:19:15;3.35;;;0.70;;
23390;SDS011;11868;45.606;5.302;2023-03-14T10:21:43;2.90;;;0.70;;
23390;SDS011;11868;45.606;5.302;2023-03-14T10:24:15;2.65;;;0.60;;
23390;SDS011;11868;45.606;5.302;2023-03-14T10:26:45;2.00;;;0.50;;
23390;SDS011;11868;45.606;5.302;2023-03-14T10:29:13;3.92;;;0.73;;
23390;SDS011;11868;45.606;5.302;2023-03-14T10:31:55;3.33;;;0.70;;
23390;SDS011;11868;45.606;5.302;2023-03-14T10:34:25;3.10;;;0.70;;
23390;SDS011;11868;45.606;5.302;2023-03-14T10:36:53;3.03;;;0.70;;
23390;SDS011;11868;45.606;5.302;2023-03-14T10:39:27;2.58;;;0.70;;
23390;SDS011;11868;45.606;5.302;2023-03-14T10:42:01;4.93;;;0.80;;
23390;SDS011;11868;45.606;5.302;2023-03-14T10:44:29;2.53;;;0.65;;
23390;SDS011;11868;45.606;5.302;2023-03-14T10:46:56;3.53;;;0.85;;
23390;SDS011;11868;45.606;5.302;2023-03-14T10:51:54;2.65;;;0.88;;
23390;SDS011;11868;45.606;5.302;2023-03-14T10:54:20;3.33;;;0.93;;
23390;SDS011;11868;45.606;5.302;2023-03-14T10:56:55;2.25;;;0.75;;
23390;SDS011;11868;45.606;5.302;2023-03-14T10:59:22;2.28;;;0.70;;
23390;SDS011;11868;45.606;5.302;2023-03-14T11:01:49;4.95;;;0.90;;
23390;SDS011;11868;45.606;5.302;2023-03-14T11:12:25;3.75;;;0.75;;
23390;SDS011;11868;45.606;5.302;2023-03-14T11:14:55;2.80;;;1.15;;
23390;SDS011;11868;45.606;5.302;2023-03-14T11:17:27;3.65;;;1.10;;
23390;SDS011;11868;45.606;5.302;2023-03-14T11:20:22;1.90;;;0.88;;
23390;SDS011;11868;45.606;5.302;2023-03-14T11:23:07;2.05;;;0.93;;
23390;SDS011;11868;45.606;5.302;2023-03-14T11:26:00;1.45;;;0.80;;
23390;SDS011;11868;45.606;5.302;2023-03-14T11:28:49;6.53;;;1.52;;
23390;SDS011;11868;45.606;5.302;2023-03-14T11:33:56;5.07;;;1.23;;
23390;SDS011;11868;45.606;5.302;2023-03-14T11:36:24;2.70;;;1.00;;
23390;SDS011;11868;45.606;5.302;2023-03-14T11:38:58;6.38;;;1.02;;
23390;SDS011;11868;45.606;5.302;2023-03-14T11:41:32;1.80;;;0.93;;
23390;SDS011;11868;45.606;5.302;2023-03-14T11:44:04;2.45;;;0.80;;
23390;SDS011;11868;45.606;5.302;2023-03-14T11:46:38;6.40;;;1.33;;
23390;SDS011;11868;45.606;5.302;2023-03-14T11:49:08;3.25;;;1.10;;
23390;SDS011;11868;45.606;5.302;2023-03-14T11:51:58;4.07;;;1.08;;
23390;SDS011;11868;45.606;5.302;2023-03-14T11:57:11;5.25;;;1.23;;
23390;SDS011;11868;45.606;5.302;2023-03-14T12:05:02;5.03;;;1.25;;
23390;SDS011;11868;45.606;5.302;2023-03-14T12:10:16;3.30;;;1.15;;
23390;SDS011;11868;45.606;5.302;2023-03-14T12:12:41;6.03;;;1.10;;
23390;SDS011;11868;45.606;5.302;2023-03-14T12:15:15;5.25;;;1.27;;
23390;SDS011;11868;45.606;5.302;2023-03-14T12:17:44;2.33;;;1.00;;
23390;SDS011;11868;45.606;5.302;2023-03-14T12:20:44;4.68;;;1.50;;
23390;SDS011;11868;45.606;5.302;2023-03-14T12:23:04;4.18;;;1.08;;
23390;SDS011;11868;45.606;5.302;2023-03-14T12:25:31;4.20;;;1.10;;
23390;SDS011;11868;45.606;5.302;2023-03-14T12:30:30;3.40;;;1.15;;
23390;SDS011;11868;45.606;5.302;2023-03-14T12:35:49;2.45;;;1.02;;
23390;SDS011;11868;45.606;5.302;2023-03-14T12:38:17;2.78;;;0.85;;
23390;SDS011;11868;45.606;5.302;2023-03-14T12:41:07;5.90;;;1.20;;
23390;SDS011;11868;45.606;5.302;2023-03-14T12:43:42;8.05;;;1.90;;
23390;SDS011;11868;45.606;5.302;2023-03-14T12:48:43;2.10;;;1.13;;
23390;SDS011;11868;45.606;5.302;2023-03-14T12:51:16;5.60;;;1.30;;
23390;SDS011;11868;45.606;5.302;2023-03-14T12:56:22;6.05;;;1.10;;
23390;SDS011;11868;45.606;5.302;2023-03-14T13:01:23;6.65;;;1.85;;
23390;SDS011;11868;45.606;5.302;2023-03-14T13:03:56;3.88;;;1.00;;
23390;SDS011;11868;45.606;5.302;2023-03-14T13:11:50;3.05;;;0.77;;
23390;SDS011;11868;45.606;5.302;2023-03-14T13:14:17;6.72;;;1.80;;
23390;SDS011;11868;45.606;5.302;2023-03-14T13:16:43;5.18;;;1.20;;
23390;SDS011;11868;45.606;5.302;2023-03-14T13:19:19;5.05;;;1.30;;
23390;SDS011;11868;45.606;5.302;2023-03-14T13:21:46;4.75;;;1.20;;
23390;SDS011;11868;45.606;5.302;2023-03-14T13:24:21;6.57;;;1.30;;
23390;SDS011;11868;45.606;5.302;2023-03-14T13:26:49;3.90;;;1.25;;
23390;SDS011;11868;45.606;5.302;2023-03-14T13:29:19;6.20;;;1.50;;
23390;SDS011;11868;45.606;5.302;2023-03-14T13:31:46;5.25;;;1.15;;
23390;SDS011;11868;45.606;5.302;2023-03-14T13:34:13;6.18;;;1.58;;
23390;SDS011;11868;45.606;5.302;2023-03-14T13:36:38;7.72;;;2.17;;
23390;SDS011;11868;45.606;5.302;2023-03-14T13:39:06;4.13;;;1.35;;
23390;SDS011;11868;45.606;5.302;2023-03-14T13:41:37;3.53;;;1.40;;
23390;SDS011;11868;45.606;5.302;2023-03-14T13:44:03;9.90;;;6.30;;
23390;SDS011;11868;45.606;5.302;2023-03-14T13:46:33;12.15;;;7.20;;
23390;SDS011;11868;45.606;5.302;2023-03-14T13:49:01;6.78;;;4.45;;
23390;SDS011;11868;45.606;5.302;2023-03-14T13:51:28;6.25;;;1.80;;
23390;SDS011;11868;45.606;5.302;2023-03-14T13:53:56;2.85;;;1.00;;
23390;SDS011;11868;45.606;5.302;2023-03-14T13:56:24;6.40;;;1.85;;
23390;SDS011;11868;45.606;5.302;2023-03-14T13:58:50;10.55;;;2.08;;
23390;SDS011;11868;45.606;5.302;2023-03-14T14:01:17;3.67;;;0.93;;
23390;SDS011;11868;45.606;5.302;2023-03-14T14:03:45;3.15;;;1.35;;
23390;SDS011;11868;45.606;5.302;2023-03-14T14:06:27;9.20;;;1.13;;
23390;SDS011;11868;45.606;5.302;2023-03-14T14:08:55;3.05;;;0.85;;
23390;SDS011;11868;45.606;5.302;2023-03-14T14:11:33;4.43;;;1.17;;
23390;SDS011;11868;45.606;5.302;2023-03-14T14:14:04;3.53;;;1.17;;
23390;SDS011;11868;45.606;5.302;2023-03-14T14:16:30;3.50;;;1.02;;
23390;SDS011;11868;45.606;5.302;2023-03-14T14:18:56;7.25;;;1.10;;
23390;SDS011;11868;45.606;5.302;2023-03-14T14:21:22;2.95;;;1.45;;
23390;SDS011;11868;45.606;5.302;2023-03-14T14:23:48;5.43;;;1.00;;
23390;SDS011;11868;45.606;5.302;2023-03-14T14:26:17;4.93;;;1.20;;
23390;SDS011;11868;45.606;5.302;2023-03-14T14:28:44;6.25;;;0.90;;
23390;SDS011;11868;45.606;5.302;2023-03-14T14:33:43;5.95;;;1.17;;
23390;SDS011;11868;45.606;5.302;2023-03-14T14:36:17;7.47;;;1.33;;
23390;SDS011;11868;45.606;5.302;2023-03-14T14:38:54;5.63;;;1.17;;
23390;SDS011;11868;45.606;5.302;2023-03-14T14:41:26;4.50;;;1.05;;
23390;SDS011;11868;45.606;5.302;2023-03-14T14:43:53;5.68;;;1.50;;
23390;SDS011;11868;45.606;5.302;2023-03-14T14:46:19;4.75;;;1.35;;
23390;SDS011;11868;45.606;5.302;2023-03-14T14:48:44;8.73;;;1.30;;
23390;SDS011;11868;45.606;5.302;2023-03-14T14:51:21;5.38;;;1.83;;
23390;SDS011;11868;45.606;5.302;2023-03-14T14:53:48;3.95;;;1.00;;
23390;SDS011;11868;45.606;5.302;2023-03-14T14:56:18;3.42;;;1.33;;
23390;SDS011;11868;45.606;5.302;2023-03-14T14:58:47;4.88;;;1.23;;
23390;SDS011;11868;45.606;5.302;2023-03-14T15:01:17;8.07;;;1.50;;
23390;SDS011;11868;45.606;5.302;2023-03-14T15:03:44;5.93;;;1.60;;
23390;SDS011;11868;45.606;5.302;2023-03-14T15:06:12;4.28;;;1.20;;
23390;SDS011;11868;45.606;5.302;2023-03-14T15:08:38;8.23;;;1.40;;
23390;SDS011;11868;45.606;5.302;2023-03-14T15:11:04;7.35;;;1.70;;
23390;SDS011;11868;45.606;5.302;2023-03-14T15:13:29;5.13;;;1.40;;
23390;SDS011;11868;45.606;5.302;2023-03-14T15:15:55;7.00;;;1.60;;
23390;SDS011;11868;45.606;5.302;2023-03-14T15:18:21;5.45;;;1.30;;
23390;SDS011;11868;45.606;5.302;2023-03-14T15:20:47;5.70;;;1.73;;
23390;SDS011;11868;45.606;5.302;2023-03-14T15:23:13;6.38;;;1.88;;
23390;SDS011;11868;45.606;5.302;2023-03-14T15:25:40;3.72;;;1.27;;
23390;SDS011;11868;45.606;5.302;2023-03-14T15:28:17;6.93;;;1.33;;
23390;SDS011;11868;45.606;5.302;2023-03-14T15:30:48;5.13;;;1.45;;
23390;SDS011;11868;45.606;5.302;2023-03-14T15:33:14;8.38;;;1.50;;
23390;SDS011;11868;45.606;5.302;2023-03-14T15:35:40;4.70;;;1.63;;
23390;SDS011;11868;45.606;5.302;2023-03-14T15:38:09;7.32;;;1.60;;
23390;SDS011;11868;45.606;5.302;2023-03-14T15:43:01;3.63;;;1.35;;
23390;SDS011;11868;45.606;5.302;2023-03-14T15:45:26;5.85;;;1.33;;